Saturday, May 26, 2018, 6:07 AM EDT
Back to Local

KSNC, Chester, Chester Airport

Location: Chester, CT, United States Lat: 41.384
Local Time: 6:07 AM EDT (10:07 GMT) Lon: -72.506
Time Zone: US/Eastern Elev: 416 ft

Show me the last for .
Show Decoded

2018-05-26 05:55 METAR KSNC 260955Z AUTO 24007KT 8SM CLR 18/17 A2980 RMK AO2 =
2018-05-26 05:35 METAR KSNC 260935Z AUTO 24006KT 8SM CLR 18/17 A2980 RMK AO2 =
2018-05-26 05:15 METAR KSNC 260915Z AUTO 24007KT 9SM CLR 19/17 A2980 RMK AO2 =
2018-05-26 04:55 METAR KSNC 260855Z AUTO 25007KT 10SM CLR 19/17 A2980 RMK AO2 =
2018-05-26 04:35 METAR KSNC 260835Z AUTO 24007G13KT 10SM CLR 19/17 A2980 RMK AO2 =
2018-05-26 04:15 METAR KSNC 260815Z AUTO 24007KT 10SM CLR 19/17 A2980 RMK AO2 =
2018-05-26 03:55 METAR KSNC 260755Z AUTO 24007KT 10SM CLR 19/17 A2980 RMK AO2 =
2018-05-26 03:35 METAR KSNC 260735Z AUTO 23009G15KT 10SM CLR 19/17 A2981 RMK AO2 =
2018-05-26 03:15 METAR KSNC 260715Z AUTO VRB06G11KT 10SM CLR 19/17 A2981 RMK AO2 =
2018-05-26 02:55 METAR KSNC 260655Z AUTO 23005G11KT 10SM CLR 19/16 A2980 RMK AO2 =
2018-05-26 02:35 METAR KSNC 260635Z AUTO 23007KT 10SM CLR 19/16 A2981 RMK AO2 =
2018-05-26 02:15 METAR KSNC 260615Z AUTO 23007KT 190V250 10SM CLR 19/16 A2982 RMK AO2 =
2018-05-26 01:55 METAR KSNC 260555Z AUTO 22006KT 10SM CLR 19/16 A2982 RMK AO2 =
2018-05-26 01:35 METAR KSNC 260535Z AUTO 23005KT 10SM CLR 19/16 A2982 RMK AO2 =
2018-05-26 01:15 METAR KSNC 260515Z AUTO 23007KT 10SM CLR 19/16 A2982 RMK AO2 =
2018-05-26 00:55 METAR KSNC 260455Z AUTO VRB06KT 10SM CLR 19/16 A2983 RMK AO2 =
2018-05-26 00:35 METAR KSNC 260435Z AUTO VRB06G11KT 10SM CLR 19/16 A2983 RMK AO2 =
2018-05-26 00:15 METAR KSNC 260415Z AUTO 23007KT 10SM CLR 19/16 A2983 RMK AO2 =
2018-05-25 23:55 METAR KSNC 260355Z AUTO 23006KT 10SM CLR 19/16 A2983 RMK AO2 =
2018-05-25 23:35 METAR KSNC 260335Z AUTO 23005KT 10SM CLR 19/16 A2984 RMK AO2 =
2018-05-25 23:15 METAR KSNC 260315Z AUTO 24004KT 10SM CLR 19/16 A2984 RMK AO2 =
2018-05-25 22:55 METAR KSNC 260255Z AUTO VRB05KT 10SM CLR 19/16 A2984 RMK AO2 =
2018-05-25 22:35 METAR KSNC 260235Z AUTO 23006KT 10SM CLR 19/15 A2984 RMK AO2 =
2018-05-25 22:15 METAR KSNC 260215Z AUTO 23006KT 10SM CLR 19/15 A2984 RMK AO2 =
2018-05-25 21:55 METAR KSNC 260155Z AUTO 21006KT 10SM CLR 20/15 A2984 RMK AO2 =
2018-05-25 21:35 METAR KSNC 260135Z AUTO 22007KT 10SM CLR 20/15 A2984 RMK AO2 =
2018-05-25 21:15 METAR KSNC 260115Z AUTO 22008KT 10SM CLR 20/15 A2983 RMK AO2 =
2018-05-25 20:55 METAR KSNC 260055Z AUTO 22007G14KT 9SM CLR 21/15 A2984 RMK AO2 =
2018-05-25 20:35 METAR KSNC 260035Z AUTO 21008KT 6SM HZ CLR 21/15 A2983 RMK AO2 =
2018-05-25 20:15 METAR KSNC 260015Z AUTO 22007G12KT 7SM CLR 21/15 A2984 RMK AO2 =
2018-05-25 19:55 METAR KSNC 252355Z AUTO 21006G11KT 7SM CLR 22/15 A2984 RMK AO2 =
2018-05-25 19:35 METAR KSNC 252335Z AUTO 20006KT 8SM CLR 23/15 A2984 RMK AO2 =
2018-05-25 19:15 METAR KSNC 252315Z AUTO 20008KT 9SM CLR 23/15 A2984 RMK AO2 =
2018-05-25 18:55 METAR KSNC 252255Z AUTO VRB06KT 9SM CLR 24/15 A2984 RMK AO2 =
2018-05-25 18:35 METAR KSNC 252235Z AUTO 20006KT 10SM CLR 25/14 A2984 RMK AO2 =
2018-05-25 18:15 METAR KSNC 252215Z AUTO VRB05G12KT 10SM CLR 26/14 A2984 RMK AO2 =
2018-05-25 17:55 METAR KSNC 252155Z AUTO 22010KT 180V240 10SM CLR 26/14 A2984 RMK AO2 =
2018-05-25 17:35 METAR KSNC 252135Z AUTO 21010G19KT 9SM CLR 27/14 A2984 RMK AO2 =
2018-05-25 17:15 METAR KSNC 252115Z AUTO 21014KT 170V240 9SM CLR 27/14 A2985 RMK AO2 =
2018-05-25 16:55 METAR KSNC 252055Z AUTO 22012G18KT 190V250 9SM CLR 27/13 A2985 RMK AO2 =
2018-05-25 16:35 METAR KSNC 252035Z AUTO 22010G21KT 190V250 9SM CLR 28/12 A2985 RMK AO2 =
2018-05-25 16:15 METAR KSNC 252015Z AUTO 20011G19KT 9SM CLR 29/12 A2985 RMK AO2 =
2018-05-25 15:55 METAR KSNC 251955Z AUTO 21010G19KT 180V240 9SM CLR 29/12 A2986 RMK AO2 =
2018-05-25 15:35 METAR KSNC 251935Z AUTO 20011G22KT 9SM CLR 29/12 A2987 RMK AO2 =
2018-05-25 15:15 METAR KSNC 251915Z AUTO 22011KT 190V250 9SM CLR 30/12 A2987 RMK AO2 =
2018-05-25 14:55 METAR KSNC 251855Z AUTO 23009G17KT 200V270 9SM CLR 30/10 A2988 RMK AO2 =
2018-05-25 14:35 METAR KSNC 251835Z AUTO 23010G16KT 200V260 9SM CLR 30/11 A2989 RMK AO2 =
2018-05-25 12:55 METAR KSNC 251655Z AUTO 20007KT 180V240 10SM CLR 28/12 A2993 RMK AO2 =
2018-05-25 12:35 METAR KSNC 251635Z AUTO 22010KT 10SM CLR 28/12 A2994 RMK AO2 =
2018-05-25 12:15 METAR KSNC 251615Z AUTO VRB06G11KT 10SM FEW048 FEW100 FEW120 27/13 A2994 RMK AO2
                 =
2018-05-25 11:55 METAR KSNC 251555Z AUTO VRB05G11KT 10SM FEW070 FEW110 27/13 A2995 RMK AO2 =
2018-05-25 11:35 METAR KSNC 251535Z AUTO 23009KT 10SM CLR 27/13 A2996 RMK AO2 =
2018-05-25 11:15 METAR KSNC 251515Z AUTO 27005G13KT 10SM CLR 27/13 A2997 RMK AO2 =
2018-05-25 10:55 METAR KSNC 251455Z AUTO VRB06G12KT 10SM CLR 26/12 A2997 RMK AO2 =
2018-05-25 10:35 METAR KSNC 251435Z AUTO 25008KT 210V290 9SM CLR 26/12 A2998 RMK AO2 =
2018-05-25 10:15 METAR KSNC 251415Z AUTO 26007KT 9SM CLR 25/12 A2999 RMK AO2 =
2018-05-25 09:55 METAR KSNC 251355Z AUTO 26007KT 10SM CLR 25/12 A3000 RMK AO2 =
2018-05-25 09:35 METAR KSNC 251335Z AUTO 25005G10KT 9SM CLR 23/13 A3000 RMK AO2 =
2018-05-25 09:15 METAR KSNC 251315Z AUTO 24006KT 10SM CLR 22/12 A3001 RMK AO2 =
2018-05-25 08:55 METAR KSNC 251255Z AUTO VRB05KT 9SM CLR 21/12 A3002 RMK AO2 =
2018-05-25 08:35 METAR KSNC 251235Z AUTO 24005G10KT 10SM CLR 20/12 A3002 RMK AO2 =
2018-05-25 08:15 METAR KSNC 251215Z AUTO 24006KT 10SM CLR 19/12 A3002 RMK AO2 =
2018-05-25 07:55 METAR KSNC 251155Z AUTO 23006KT 10SM CLR 18/11 A3003 RMK AO2 =
2018-05-25 07:35 METAR KSNC 251135Z AUTO 24007KT 10SM CLR 18/11 A3003 RMK AO2 =
2018-05-25 07:15 METAR KSNC 251115Z AUTO 24005KT 10SM CLR 17/11 A3003 RMK AO2 =
2018-05-25 06:55 METAR KSNC 251055Z AUTO 24006KT 10SM CLR 16/11 A3003 RMK AO2 =
2018-05-25 06:35 METAR KSNC 251035Z AUTO VRB06KT 10SM CLR 16/10 A3003 RMK AO2 =
2018-05-25 06:15 METAR KSNC 251015Z AUTO 24007KT 10SM CLR 15/10 A3003 RMK AO2 =

Support USWX by starting your Amazon purchase here.